createdAt,value
2022-09-07T00:01:10.890Z,101209.69
2022-09-07T00:03:38.422Z,101199.09
2022-09-07T00:06:12.440Z,101200.16
2022-09-07T00:08:43.531Z,101197.09
2022-09-07T00:11:16.326Z,101185.97
2022-09-07T00:13:47.313Z,101174.91
2022-09-07T00:16:23.440Z,101165.38
2022-09-07T00:18:54.374Z,101163.16
2022-09-07T00:21:22.229Z,101156.31
2022-09-07T00:23:50.455Z,101170.97
2022-09-07T00:26:25.658Z,101167.91
2022-09-07T00:29:02.009Z,101161.31
2022-09-07T00:31:31.229Z,101159.22
2022-09-07T00:34:02.173Z,101153.56
2022-09-07T00:36:30.291Z,101146.09
2022-09-07T00:38:58.452Z,101144.94
2022-09-07T00:41:25.887Z,101142.84
2022-09-07T00:43:57.399Z,101136.91
2022-09-07T00:46:27.844Z,101147.44
2022-09-07T00:49:14.898Z,101146.19
2022-09-07T00:52:01.956Z,101144.91
2022-09-07T00:54:40.328Z,101139.97
2022-09-07T00:57:08.552Z,101134.31
2022-09-07T00:59:45.073Z,101134.75
2022-09-07T01:02:17.113Z,101141.47
2022-09-07T01:04:51.117Z,101152.53
2022-09-07T01:07:19.430Z,101153.84
2022-09-07T01:09:47.505Z,101156.84
2022-09-07T01:12:14.996Z,101145.69
2022-09-07T01:14:50.471Z,101157.50
2022-09-07T01:17:51.596Z,101157.84
2022-09-07T01:20:50.716Z,101161.69
2022-09-07T01:23:59.035Z,101150.59
2022-09-07T01:27:23.163Z,101139.44
2022-09-07T01:30:09.402Z,101146.03
2022-09-07T01:33:12.093Z,101157.72
2022-09-07T01:36:03.185Z,101151.03
2022-09-07T01:38:56.054Z,101163.72
2022-09-07T01:41:44.780Z,101170.91
2022-09-07T01:44:24.381Z,101169.28
2022-09-07T01:47:09.215Z,101168.41
2022-09-07T01:49:45.526Z,101162.31
2022-09-07T01:52:36.155Z,101161.53
2022-09-07T01:55:16.713Z,101153.72
2022-09-07T01:58:13.621Z,101149.50
2022-09-07T02:00:49.252Z,101146.16
2022-09-07T02:03:29.158Z,101149.91
2022-09-07T02:06:18.539Z,101148.34
2022-09-07T02:09:01.035Z,101147.63
2022-09-07T02:11:43.826Z,101140.69
2022-09-07T02:14:30.217Z,101138.09
2022-09-07T02:17:10.838Z,101143.50
2022-09-07T02:19:50.051Z,101142.78
2022-09-07T02:22:27.171Z,101141.94
2022-09-07T02:25:00.862Z,101142.78
2022-09-07T02:27:50.727Z,101141.84
2022-09-07T02:30:18.321Z,101145.38
2022-09-07T02:32:45.903Z,101132.84
2022-09-07T02:35:13.542Z,101133.56
2022-09-07T02:37:44.338Z,101140.44
2022-09-07T02:40:12.975Z,101146.53
2022-09-07T02:42:43.226Z,101147.16
2022-09-07T02:45:13.676Z,101137.22
2022-09-07T02:47:58.334Z,101140.59
2022-09-07T02:50:58.642Z,101135.88
2022-09-07T02:53:56.442Z,101136.75
2022-09-07T02:57:00.869Z,101126.78
2022-09-07T02:59:37.360Z,101121.41
2022-09-07T03:02:19.733Z,101120.38
2022-09-07T03:05:03.157Z,101120.22
2022-09-07T03:07:41.007Z,101117.56
2022-09-07T03:10:14.612Z,101104.25
2022-09-07T03:12:49.532Z,101104.06
2022-09-07T03:15:25.133Z,101109.31
2022-09-07T03:17:53.711Z,101111.13
2022-09-07T03:20:22.804Z,101106.59
2022-09-07T03:22:52.663Z,101115.34
2022-09-07T03:25:20.153Z,101116.97
2022-09-07T03:27:47.582Z,101109.78
2022-09-07T03:30:15.113Z,101115.81
2022-09-07T03:32:42.549Z,101096.34
2022-09-07T03:35:10.836Z,101104.22
2022-09-07T03:37:38.780Z,101099.22
2022-09-07T03:40:10.162Z,101108.28
2022-09-07T03:42:38.276Z,101108.47
2022-09-07T03:45:08.049Z,101112.75
2022-09-07T03:47:39.609Z,101122.38
2022-09-07T03:50:07.435Z,101117.06
2022-09-07T03:52:35.536Z,101120.59
2022-09-07T03:55:04.217Z,101107.06
2022-09-07T03:57:31.791Z,101114.88
2022-09-07T03:59:59.224Z,101105.88
2022-09-07T04:02:26.663Z,101109.22
2022-09-07T04:04:54.160Z,101110.00
2022-09-07T04:07:21.789Z,101109.06
2022-09-07T04:09:51.235Z,101109.06
2022-09-07T04:12:19.728Z,101109.06
2022-09-07T04:14:47.159Z,101114.38
2022-09-07T04:17:14.657Z,101106.41
2022-09-07T04:19:42.209Z,101101.09
2022-09-07T04:22:10.639Z,101100.31
2022-09-07T04:24:38.215Z,101089.66
2022-09-07T04:27:05.666Z,101087.06
2022-09-07T04:29:33.094Z,101084.50
2022-09-07T04:32:00.540Z,101076.50
2022-09-07T04:34:28.148Z,101087.34
2022-09-07T04:36:55.547Z,101094.53
2022-09-07T04:39:23.032Z,101110.50
2022-09-07T04:41:50.454Z,101102.53
2022-09-07T04:44:17.887Z,101100.63
2022-09-07T04:46:45.391Z,101081.06
2022-09-07T04:49:13.978Z,101088.13
2022-09-07T04:51:44.383Z,101101.41
2022-09-07T04:54:12.202Z,101112.84
2022-09-07T04:56:39.676Z,101115.56
2022-09-07T04:59:07.195Z,101112.06
2022-09-07T05:01:34.687Z,101114.72
2022-09-07T05:04:04.376Z,101112.06
2022-09-07T05:06:32.646Z,101110.25
2022-09-07T05:09:00.553Z,101115.56
2022-09-07T05:11:29.923Z,101123.63
2022-09-07T05:14:03.223Z,101121.94
2022-09-07T05:16:31.737Z,101130.75
2022-09-07T05:19:02.487Z,101130.69
2022-09-07T05:21:33.638Z,101132.50
2022-09-07T05:24:02.493Z,101124.50
2022-09-07T05:26:33.934Z,101125.38
2022-09-07T05:31:54.843Z,101112.97
2022-09-07T05:34:30.592Z,101104.06
2022-09-07T05:36:58.846Z,101110.25
2022-09-07T05:39:27.376Z,101115.50
2022-09-07T05:42:40.529Z,101116.34
2022-09-07T05:45:11.471Z,101114.72
2022-09-07T05:47:39.312Z,101118.16
2022-09-07T05:50:09.083Z,101115.41
2022-09-07T05:52:36.687Z,101120.63
2022-09-07T05:55:26.229Z,101111.72
2022-09-07T05:57:51.974Z,101117.91
2022-09-07T06:00:21.554Z,101112.56
2022-09-07T06:02:49.127Z,101115.16
2022-09-07T06:05:17.589Z,101114.91
2022-09-07T06:07:48.253Z,101122.75
2022-09-07T06:13:04.729Z,101124.19
2022-09-07T06:15:33.798Z,101129.44
2022-09-07T06:18:01.403Z,101123.16
2022-09-07T06:20:28.931Z,101114.16
2022-09-07T06:22:56.339Z,101122.84
2022-09-07T06:25:23.814Z,101123.50
2022-09-07T06:27:51.973Z,101119.06
2022-09-07T06:30:20.929Z,101127.91
2022-09-07T06:32:48.444Z,101127.91
2022-09-07T06:35:16.125Z,101132.38
2022-09-07T06:37:44.150Z,101137.59
2022-09-07T06:40:12.193Z,101141.13
2022-09-07T06:42:40.021Z,101141.03
2022-09-07T06:45:11.225Z,101136.59
2022-09-07T06:47:39.260Z,101143.44
2022-09-07T06:50:07.584Z,101142.41
2022-09-07T06:55:27.903Z,101142.22
2022-09-07T06:57:55.313Z,101141.53
2022-09-07T07:00:22.769Z,101140.06
2022-09-07T07:02:50.267Z,101143.25
2022-09-07T07:05:17.765Z,101151.16
2022-09-07T07:07:45.278Z,101150.25
2022-09-07T07:10:12.944Z,101154.59
2022-09-07T07:15:08.842Z,101162.78
2022-09-07T07:17:36.258Z,101160.78
2022-09-07T07:20:03.965Z,101166.28
2022-09-07T07:22:47.237Z,101153.25
2022-09-07T07:25:15.263Z,101154.44
2022-09-07T07:27:45.952Z,101147.97
2022-09-07T07:30:16.702Z,101149.69
2022-09-07T07:32:46.227Z,101155.88
2022-09-07T07:35:14.495Z,101155.81
2022-09-07T07:37:42.114Z,101166.38
2022-09-07T07:42:42.821Z,101164.41
2022-09-07T07:47:59.057Z,101171.56
2022-09-07T07:50:31.571Z,101169.66
2022-09-07T07:55:50.634Z,101177.66
2022-09-07T07:58:18.575Z,101171.53
2022-09-07T08:00:55.905Z,101178.47
2022-09-07T08:03:25.366Z,101172.28
2022-09-07T08:05:55.261Z,101174.75
2022-09-07T08:08:23.724Z,101186.00
2022-09-07T08:10:51.288Z,101178.47
2022-09-07T08:13:19.220Z,101184.25
2022-09-07T08:15:47.001Z,101187.31
2022-09-07T08:18:17.150Z,101179.88
2022-09-07T08:20:44.968Z,101172.88
2022-09-07T08:23:12.489Z,101181.34
2022-09-07T08:25:50.877Z,101184.06
2022-09-07T08:28:19.829Z,101183.34
2022-09-07T08:30:48.047Z,101190.53
2022-09-07T08:33:15.704Z,101191.84
2022-09-07T08:35:43.265Z,101197.53
2022-09-07T08:38:10.846Z,101191.38
2022-09-07T08:40:38.845Z,101196.66
2022-09-07T08:43:26.967Z,101194.72
2022-09-07T08:46:04.932Z,101199.22
2022-09-07T08:48:35.822Z,101193.41
2022-09-07T08:51:20.037Z,101199.63
2022-09-07T08:53:50.539Z,101204.56
2022-09-07T08:56:33.677Z,101197.69
2022-09-07T08:59:18.775Z,101206.06
2022-09-07T09:02:27.112Z,101213.13
2022-09-07T09:05:16.098Z,101212.06
2022-09-07T09:07:35.974Z,101211.44
2022-09-07T09:10:27.338Z,101210.34
2022-09-07T09:13:18.450Z,101213.88
2022-09-07T09:16:02.444Z,101214.31
2022-09-07T09:18:42.043Z,101210.44
2022-09-07T09:21:16.585Z,101217.09
2022-09-07T09:23:51.107Z,101213.25
2022-09-07T09:26:25.393Z,101211.09
2022-09-07T09:28:52.943Z,101209.59
2022-09-07T09:31:26.478Z,101211.22
2022-09-07T09:34:17.639Z,101209.88
2022-09-07T09:36:49.725Z,101212.31
2022-09-07T09:39:37.185Z,101213.88
2022-09-07T09:42:11.649Z,101216.75
2022-09-07T09:44:40.642Z,101209.22
2022-09-07T09:47:30.368Z,101203.94
2022-09-07T09:52:29.222Z,101211.16
2022-09-07T09:53:06.723Z,101215.84
2022-09-07T09:55:37.955Z,101217.09
2022-09-07T10:01:30.975Z,101213.53
2022-09-07T10:04:24.724Z,101213.53
2022-09-07T10:07:09.001Z,101212.94
2022-09-07T10:09:41.249Z,101206.03
2022-09-07T10:12:24.781Z,101204.34
2022-09-07T10:14:53.650Z,101199.94
2022-09-07T10:17:35.692Z,101202.03
2022-09-07T10:20:18.598Z,101201.53
2022-09-07T10:22:58.682Z,101188.47
2022-09-07T10:25:41.500Z,101199.94
2022-09-07T10:28:10.026Z,101194.81
2022-09-07T10:31:30.117Z,101195.69
2022-09-07T10:34:29.472Z,101206.28
2022-09-07T10:37:09.522Z,101195.88
2022-09-07T10:40:00.302Z,101202.59
2022-09-07T10:42:35.597Z,101202.19
2022-09-07T10:45:24.688Z,101195.72
2022-09-07T10:48:23.622Z,101196.22
2022-09-07T10:51:05.130Z,101194.31
2022-09-07T10:57:34.947Z,101195.38
2022-09-07T11:00:16.433Z,101193.06
2022-09-07T11:03:28.305Z,101189.53
2022-09-07T11:06:09.061Z,101181.19
2022-09-07T11:09:19.644Z,101192.94
2022-09-07T11:12:05.595Z,101182.31
2022-09-07T11:14:45.110Z,101185.97
2022-09-07T11:17:50.616Z,101184.00
2022-09-07T11:20:54.934Z,101182.13
2022-09-07T11:23:42.074Z,101180.34
2022-09-07T11:26:29.583Z,101165.63
2022-09-07T11:32:26.330Z,101174.41
2022-09-07T11:35:03.850Z,101159.97
2022-09-07T11:37:47.047Z,101156.56
2022-09-07T11:40:58.546Z,101159.25
2022-09-07T11:43:35.100Z,101170.47
2022-09-07T11:46:13.164Z,101158.00
2022-09-07T11:48:52.415Z,101160.75
2022-09-07T11:51:35.848Z,101155.28
2022-09-07T11:54:39.230Z,101158.38
2022-09-07T11:57:15.888Z,101144.50
2022-09-07T12:00:01.665Z,101145.50
2022-09-07T12:03:49.812Z,101152.97
2022-09-07T12:06:32.095Z,101160.09
2022-09-07T12:09:45.493Z,101156.78
2022-09-07T12:12:43.575Z,101145.09
2022-09-07T12:15:44.416Z,101142.94
2022-09-07T12:19:01.149Z,101147.31
2022-09-07T12:21:43.522Z,101136.25
2022-09-07T12:24:35.560Z,101131.22
2022-09-07T12:27:08.704Z,101136.06
2022-09-07T12:29:36.822Z,101140.69
2022-09-07T12:32:53.462Z,101133.63
2022-09-07T12:34:55.703Z,101137.47
2022-09-07T12:37:40.096Z,101135.41
2022-09-07T12:40:36.138Z,101134.00
2022-09-07T12:43:12.642Z,101129.53
2022-09-07T12:45:48.420Z,101115.75
2022-09-07T12:48:15.799Z,101121.28
2022-09-07T12:51:09.565Z,101117.44
2022-09-07T12:54:09.732Z,101115.59
2022-09-07T12:57:28.970Z,101123.88
2022-09-07T12:59:53.329Z,101114.47
2022-09-07T13:03:49.456Z,101116.44
2022-09-07T13:06:16.074Z,101111.34
2022-09-07T13:09:17.282Z,101096.31
2022-09-07T13:11:45.779Z,101096.03
2022-09-07T13:14:13.411Z,101101.97
2022-09-07T13:19:55.127Z,101093.44
2022-09-07T13:22:35.213Z,101086.03
2022-09-07T13:25:26.215Z,101085.59
2022-09-07T13:28:23.603Z,101090.28
2022-09-07T13:31:48.550Z,101075.16
2022-09-07T13:34:34.114Z,101081.69
2022-09-07T13:37:06.054Z,101085.50
2022-09-07T13:39:45.733Z,101078.50
2022-09-07T13:42:22.072Z,101073.34
2022-09-07T13:45:00.262Z,101068.06
2022-09-07T13:47:59.347Z,101061.78
2022-09-07T13:50:43.368Z,101063.56
2022-09-07T13:53:32.902Z,101063.50
2022-09-07T13:56:24.325Z,101073.16
2022-09-07T13:58:53.311Z,101061.59
2022-09-07T14:01:28.963Z,101058.81
2022-09-07T14:04:07.533Z,101052.44
2022-09-07T14:06:37.822Z,101058.28
2022-09-07T14:09:14.782Z,101053.75
2022-09-07T14:11:49.094Z,101054.69
2022-09-07T14:14:26.463Z,101053.84
2022-09-07T14:17:01.692Z,101055.53
2022-09-07T14:19:45.287Z,101043.16
2022-09-07T14:22:16.505Z,101059.66
2022-09-07T14:24:51.395Z,101053.56
2022-09-07T14:27:36.647Z,101051.31
2022-09-07T14:30:33.296Z,101047.31
2022-09-07T14:33:06.307Z,101045.88
2022-09-07T14:35:38.352Z,101047.97
2022-09-07T14:41:15.302Z,101049.53
2022-09-07T14:43:56.533Z,101055.63
2022-09-07T14:46:29.335Z,101049.38
2022-09-07T14:49:01.549Z,101049.25
2022-09-07T14:51:36.217Z,101045.53
2022-09-07T14:54:08.037Z,101044.53
2022-09-07T14:56:41.587Z,101046.06
2022-09-07T14:59:44.444Z,101039.75
2022-09-07T15:02:29.856Z,101038.50
2022-09-07T15:05:25.938Z,101034.06
2022-09-07T15:08:02.710Z,101033.81
2022-09-07T15:10:41.344Z,101034.16
2022-09-07T15:13:32.998Z,101036.66
2022-09-07T15:16:05.525Z,101033.13
2022-09-07T15:19:16.531Z,101044.25
2022-09-07T15:21:45.438Z,101042.84
2022-09-07T15:24:12.835Z,101039.88
2022-09-07T15:27:02.915Z,101039.28
2022-09-07T15:29:31.595Z,101033.47
2022-09-07T15:32:05.114Z,101039.44
2022-09-07T15:34:35.291Z,101034.63
2022-09-07T15:38:00.305Z,101029.53
2022-09-07T15:39:52.860Z,101028.38
2022-09-07T15:45:08.956Z,101034.63
2022-09-07T15:47:50.625Z,101023.44
2022-09-07T15:50:19.494Z,101018.47
2022-09-07T15:52:47.057Z,101021.88
2022-09-07T15:55:17.096Z,101019.19
2022-09-07T15:57:50.128Z,101015.31
2022-09-07T16:00:20.768Z,101016.44
2022-09-07T16:03:06.069Z,101020.41
2022-09-07T16:05:34.487Z,101015.84
2022-09-07T16:10:53.919Z,101011.84
2022-09-07T16:13:24.020Z,101013.44
2022-09-07T16:15:52.102Z,101016.97
2022-09-07T16:18:19.599Z,101012.72
2022-09-07T16:20:47.283Z,101007.59
2022-09-07T16:23:17.064Z,101007.81
2022-09-07T16:26:00.941Z,101008.25
2022-09-07T16:28:29.433Z,101005.84
2022-09-07T16:30:57.160Z,101002.88
2022-09-07T16:33:34.379Z,100996.91
2022-09-07T16:36:13.213Z,100997.91
2022-09-07T16:38:44.442Z,101001.59
2022-09-07T16:41:29.008Z,101002.88
2022-09-07T16:43:57.354Z,101001.03
2022-09-07T16:46:28.345Z,101002.56
2022-09-07T16:48:55.826Z,100993.50
2022-09-07T16:51:24.879Z,100997.78
2022-09-07T16:53:55.813Z,100998.47
2022-09-07T16:56:27.041Z,100995.50
2022-09-07T16:58:58.909Z,101006.41
2022-09-07T17:01:31.269Z,101003.00
2022-09-07T17:04:00.330Z,101006.50
2022-09-07T17:06:30.125Z,101000.84
2022-09-07T17:09:01.277Z,101004.19
2022-09-07T17:11:34.127Z,101005.03
2022-09-07T17:14:02.197Z,100997.06
2022-09-07T17:16:33.617Z,101007.72
2022-09-07T17:21:53.637Z,101002.13
2022-09-07T17:24:21.463Z,101003.81
2022-09-07T17:26:48.827Z,100995.44
2022-09-07T17:29:16.696Z,100996.09
2022-09-07T17:34:33.606Z,100977.13
2022-09-07T17:37:01.374Z,100976.09
2022-09-07T17:39:29.513Z,100963.28
2022-09-07T17:41:57.065Z,100959.56
2022-09-07T17:44:24.526Z,100962.06
2022-09-07T17:46:51.947Z,100964.56
2022-09-07T17:49:19.377Z,100959.00
2022-09-07T17:51:46.864Z,100960.78
2022-09-07T17:54:17.439Z,100962.38
2022-09-07T17:56:46.253Z,100960.59
2022-09-07T18:02:01.406Z,100964.25
2022-09-07T18:04:28.984Z,100969.50
2022-09-07T18:06:56.423Z,100970.66
2022-09-07T18:09:24.032Z,100962.63
2022-09-07T18:11:51.529Z,100966.16
2022-09-07T18:14:19.396Z,100965.06
2022-09-07T18:16:49.838Z,100963.25
2022-09-07T18:19:18.893Z,100971.19
2022-09-07T18:21:47.907Z,100972.78
2022-09-07T18:24:22.863Z,100974.38
2022-09-07T18:26:53.729Z,100984.97
2022-09-07T18:29:29.944Z,100983.88
2022-09-07T18:32:00.594Z,100985.28
2022-09-07T18:34:31.902Z,100979.44
2022-09-07T18:37:00.807Z,100970.88
2022-09-07T18:39:28.559Z,100982.06
2022-09-07T18:41:56.562Z,100985.22
2022-09-07T18:47:22.339Z,100981.16
2022-09-07T18:49:51.541Z,100989.03
2022-09-07T18:55:09.833Z,100976.19
2022-09-07T18:57:39.315Z,100972.34
2022-09-07T19:00:09.563Z,100965.72
2022-09-07T19:02:37.273Z,100980.47
2022-09-07T19:07:52.979Z,100974.53
2022-09-07T19:10:20.529Z,100978.59
2022-09-07T19:12:47.915Z,100977.22
2022-09-07T19:15:15.612Z,100975.00
2022-09-07T19:17:43.029Z,100978.13
2022-09-07T19:20:10.582Z,100973.09
2022-09-07T19:22:38.932Z,100976.22
2022-09-07T19:25:06.675Z,100973.88
2022-09-07T19:27:34.614Z,100985.88
2022-09-07T19:30:03.470Z,100984.44
2022-09-07T19:32:30.833Z,100979.66
2022-09-07T19:34:58.208Z,100973.88
2022-09-07T19:37:26.151Z,100977.09
2022-09-07T19:39:55.061Z,100981.06
2022-09-07T19:42:24.407Z,100985.00
2022-09-07T19:44:54.097Z,100980.94
2022-09-07T19:47:21.911Z,100979.56
2022-09-07T19:49:49.324Z,100977.31
2022-09-07T19:52:16.672Z,100974.00
2022-09-07T19:54:44.123Z,100975.28
2022-09-07T19:57:12.221Z,100968.53
2022-09-07T19:59:39.589Z,100977.72
2022-09-07T20:02:07.123Z,100976.34
2022-09-07T20:04:35.729Z,100961.53
2022-09-07T20:07:03.971Z,100962.81
2022-09-07T20:09:31.352Z,100964.06
2022-09-07T20:12:01.719Z,100959.13
2022-09-07T20:14:29.393Z,100964.88
2022-09-07T20:16:57.116Z,100963.38
2022-09-07T20:19:24.634Z,100956.75
2022-09-07T20:21:55.632Z,100963.25
2022-09-07T20:24:23.361Z,100942.41
2022-09-07T20:26:51.257Z,100954.34
2022-09-07T20:29:34.061Z,100948.47
2022-09-07T20:32:01.857Z,100940.75
2022-09-07T20:34:29.857Z,100946.19
2022-09-07T20:36:57.407Z,100944.47
2022-09-07T20:39:24.987Z,100938.38
2022-09-07T20:41:52.652Z,100932.19
2022-09-07T20:44:20.099Z,100924.25
2022-09-07T20:46:47.589Z,100928.84
2022-09-07T20:49:15.113Z,100916.56
2022-09-07T20:51:42.513Z,100920.31
2022-09-07T20:54:10.163Z,100912.47
2022-09-07T20:56:37.690Z,100917.38
2022-09-07T20:59:05.258Z,100920.31
2022-09-07T21:01:34.909Z,100915.06
2022-09-07T21:04:03.093Z,100913.47
2022-09-07T21:06:32.777Z,100909.06
2022-09-07T21:09:00.274Z,100910.97
2022-09-07T21:11:34.345Z,100912.72
2022-09-07T21:14:11.067Z,100908.31
2022-09-07T21:16:39.212Z,100911.09
2022-09-07T21:19:09.060Z,100907.56
2022-09-07T21:21:42.654Z,100902.44
2022-09-07T21:24:23.065Z,100899.19
2022-09-07T21:26:51.796Z,100899.41
2022-09-07T21:29:23.601Z,100897.88
2022-09-07T21:31:53.597Z,100891.88
2022-09-07T21:34:22.197Z,100891.97
2022-09-07T21:36:49.898Z,100884.19
2022-09-07T21:39:17.672Z,100896.94
2022-09-07T21:41:45.518Z,100897.16
2022-09-07T21:44:15.498Z,100894.78
2022-09-07T21:46:44.145Z,100894.97
2022-09-07T21:49:12.185Z,100896.78
2022-09-07T21:51:39.821Z,100898.69
2022-09-07T21:54:07.433Z,100901.53
2022-09-07T21:56:34.850Z,100901.75
2022-09-07T21:59:02.594Z,100892.22
2022-09-07T22:01:31.689Z,100892.41
2022-09-07T22:04:03.354Z,100899.53
2022-09-07T22:06:32.366Z,100891.94
2022-09-07T22:09:01.386Z,100888.34
2022-09-07T22:11:29.933Z,100882.03
2022-09-07T22:14:02.655Z,100879.38
2022-09-07T22:16:32.736Z,100879.59
2022-09-07T22:19:00.735Z,100876.16
2022-09-07T22:21:30.124Z,100877.56
2022-09-07T22:24:02.132Z,100871.16
2022-09-07T22:26:33.937Z,100873.63
2022-09-07T22:29:01.475Z,100877.50
2022-09-07T22:31:32.910Z,100883.72
2022-09-07T22:34:01.993Z,100883.81
2022-09-07T22:36:36.108Z,100878.47
2022-09-07T22:39:13.900Z,100884.66
2022-09-07T22:41:43.294Z,100884.47
2022-09-07T22:44:15.246Z,100876.38
2022-09-07T22:46:44.908Z,100880.69
2022-09-07T22:49:15.846Z,100875.16
2022-09-07T22:51:44.423Z,100877.63
2022-09-07T22:54:11.874Z,100875.63
2022-09-07T22:56:39.891Z,100865.56
2022-09-07T22:59:09.626Z,100857.38
2022-09-07T23:01:37.604Z,100863.38
2022-09-07T23:06:38.494Z,100860.44
2022-09-07T23:09:10.509Z,100858.53
2022-09-07T23:11:38.609Z,100864.72
2022-09-07T23:14:13.104Z,100863.69
2022-09-07T23:16:41.036Z,100860.16
2022-09-07T23:19:12.650Z,100854.91
2022-09-07T23:21:40.734Z,100845.41
2022-09-07T23:24:13.412Z,100843.88
2022-09-07T23:26:41.215Z,100846.91
2022-09-07T23:29:12.914Z,100846.31
2022-09-07T23:31:40.920Z,100854.59
2022-09-07T23:34:09.527Z,100851.25
2022-09-07T23:36:37.100Z,100850.41
2022-09-07T23:39:05.009Z,100855.75
2022-09-07T23:41:32.722Z,100856.78
2022-09-07T23:44:00.457Z,100870.97
2022-09-07T23:46:27.982Z,100879.16
2022-09-07T23:48:55.440Z,100897.88
2022-09-07T23:51:24.426Z,100899.78
2022-09-07T23:53:53.301Z,100889.50
2022-09-07T23:56:24.264Z,100887.28
2022-09-07T23:58:52.187Z,100883.53
